createdAt,value
2022-07-29T00:02:11.339Z,84.83
2022-07-29T00:04:44.685Z,84.92
2022-07-29T00:07:18.018Z,85.41
2022-07-29T00:09:52.646Z,85.11
2022-07-29T00:12:30.098Z,85.36
2022-07-29T00:15:13.657Z,84.20
2022-07-29T00:17:47.258Z,84.49
2022-07-29T00:20:20.577Z,84.81
2022-07-29T00:22:53.540Z,84.93
2022-07-29T00:25:26.344Z,84.58
2022-07-29T00:27:59.181Z,84.77
2022-07-29T00:30:32.019Z,83.79
2022-07-29T00:33:08.944Z,84.14
2022-07-29T00:35:48.258Z,83.83
2022-07-29T00:38:22.621Z,84.14
2022-07-29T00:40:55.941Z,83.70
2022-07-29T00:43:28.740Z,83.81
2022-07-29T00:46:02.064Z,83.71
2022-07-29T00:48:35.056Z,84.31
2022-07-29T00:51:11.658Z,84.09
2022-07-29T00:53:44.781Z,84.01
2022-07-29T00:56:17.937Z,83.67
2022-07-29T00:58:50.025Z,83.55
2022-07-29T01:01:23.148Z,83.97
2022-07-29T01:03:56.153Z,84.36
2022-07-29T01:06:31.698Z,83.79
2022-07-29T01:09:05.339Z,83.97
2022-07-29T01:11:39.097Z,83.70
2022-07-29T01:14:13.239Z,83.88
2022-07-29T01:16:54.500Z,83.95
2022-07-29T01:19:51.779Z,83.61
2022-07-29T01:22:32.059Z,83.15
2022-07-29T01:25:27.137Z,83.17
2022-07-29T01:28:21.580Z,82.60
2022-07-29T01:30:59.036Z,81.91
2022-07-29T01:33:52.461Z,82.26
2022-07-29T01:36:30.179Z,82.22
2022-07-29T01:39:11.300Z,82.03
2022-07-29T01:41:52.417Z,81.60
2022-07-29T01:44:36.657Z,81.73
2022-07-29T01:47:18.503Z,81.85
2022-07-29T01:49:59.060Z,82.05
2022-07-29T01:52:39.219Z,82.26
2022-07-29T01:55:18.340Z,81.92
2022-07-29T01:57:54.417Z,81.92
2022-07-29T02:00:28.256Z,82.15
2022-07-29T02:03:02.301Z,82.24
2022-07-29T02:05:38.618Z,82.33
2022-07-29T02:08:13.459Z,82.58
2022-07-29T02:10:48.377Z,82.62
2022-07-29T02:13:23.537Z,82.73
2022-07-29T02:15:58.828Z,82.82
2022-07-29T02:18:36.423Z,83.14
2022-07-29T02:21:14.946Z,83.80
2022-07-29T02:23:51.875Z,83.86
2022-07-29T02:26:26.979Z,83.93
2022-07-29T02:29:02.778Z,84.09
2022-07-29T02:31:39.221Z,84.48
2022-07-29T02:34:14.739Z,84.67
2022-07-29T02:36:55.058Z,84.82
2022-07-29T02:39:30.500Z,84.78
2022-07-29T02:42:08.223Z,85.05
2022-07-29T02:44:41.738Z,85.23
2022-07-29T02:47:20.419Z,84.68
2022-07-29T02:50:00.424Z,84.97
2022-07-29T02:52:40.620Z,85.13
2022-07-29T02:55:21.380Z,86.16
2022-07-29T02:58:00.548Z,86.35
2022-07-29T03:00:37.217Z,87.18
2022-07-29T03:03:15.698Z,86.82
2022-07-29T03:05:48.697Z,86.80
2022-07-29T03:08:21.819Z,86.94
2022-07-29T03:10:59.445Z,86.78
2022-07-29T03:13:32.576Z,87.10
2022-07-29T03:16:06.825Z,86.38
2022-07-29T03:18:40.178Z,86.16
2022-07-29T03:21:13.258Z,86.07
2022-07-29T03:23:49.898Z,85.74
2022-07-29T03:26:23.856Z,86.42
2022-07-29T03:28:57.495Z,86.37
2022-07-29T03:31:30.961Z,86.94
2022-07-29T03:34:04.137Z,86.69
2022-07-29T03:36:37.019Z,86.40
2022-07-29T03:39:12.140Z,85.99
2022-07-29T03:41:47.274Z,85.60
2022-07-29T03:44:22.856Z,85.38
2022-07-29T03:46:58.623Z,85.25
2022-07-29T03:49:32.258Z,85.17
2022-07-29T03:52:06.215Z,84.76
2022-07-29T03:54:39.136Z,84.42
2022-07-29T03:57:13.498Z,84.31
2022-07-29T03:59:50.343Z,83.43
2022-07-29T04:02:30.558Z,82.81
2022-07-29T04:05:03.816Z,82.90
2022-07-29T04:07:36.660Z,81.90
2022-07-29T04:10:11.137Z,81.11
2022-07-29T04:12:44.138Z,80.27
2022-07-29T04:15:18.295Z,79.69
2022-07-29T04:17:51.778Z,79.37
2022-07-29T04:20:25.459Z,79.55
2022-07-29T04:22:58.218Z,78.78
2022-07-29T04:25:31.256Z,78.89
2022-07-29T04:28:07.338Z,79.13
2022-07-29T04:30:42.053Z,78.06
2022-07-29T04:33:19.346Z,78.73
2022-07-29T04:35:55.026Z,78.15
2022-07-29T04:38:28.737Z,77.53
2022-07-29T04:41:01.738Z,77.24
2022-07-29T04:43:36.797Z,76.92
2022-07-29T04:46:11.435Z,76.71
2022-07-29T04:48:44.626Z,75.95
2022-07-29T04:51:17.936Z,76.20
2022-07-29T04:53:51.217Z,76.17
2022-07-29T04:56:22.141Z,74.64
2022-07-29T04:58:55.336Z,74.98
2022-07-29T05:01:28.555Z,73.80
2022-07-29T05:04:00.614Z,73.99
2022-07-29T05:06:33.775Z,73.72
2022-07-29T05:09:06.617Z,72.66
2022-07-29T05:11:39.216Z,72.16
2022-07-29T05:14:12.281Z,72.43
2022-07-29T05:16:45.177Z,71.60
2022-07-29T05:19:18.179Z,70.97
2022-07-29T05:21:51.298Z,70.78
2022-07-29T05:24:24.548Z,69.94
2022-07-29T05:26:58.983Z,69.78
2022-07-29T05:29:44.048Z,69.10
2022-07-29T05:32:18.498Z,68.49
2022-07-29T05:34:54.258Z,67.89
2022-07-29T05:37:28.539Z,67.04
2022-07-29T05:40:01.423Z,65.36
2022-07-29T05:42:35.499Z,66.40
2022-07-29T05:45:10.498Z,64.84
2022-07-29T05:47:44.264Z,64.49
2022-07-29T05:50:18.784Z,63.37
2022-07-29T05:52:51.779Z,62.66
2022-07-29T05:55:27.896Z,61.15
2022-07-29T05:58:00.577Z,60.79
2022-07-29T06:00:35.982Z,60.18
2022-07-29T06:03:09.379Z,59.63
2022-07-29T06:05:42.466Z,59.98
2022-07-29T06:08:15.379Z,59.41
2022-07-29T06:10:48.897Z,58.62
2022-07-29T06:13:21.537Z,59.00
2022-07-29T06:15:54.448Z,57.68
2022-07-29T06:18:27.537Z,57.89
2022-07-29T06:21:00.862Z,57.52
2022-07-29T06:23:33.697Z,57.32
2022-07-29T06:26:06.699Z,57.82
2022-07-29T06:28:37.819Z,57.87
2022-07-29T06:31:12.118Z,57.81
2022-07-29T06:33:45.977Z,57.34
2022-07-29T06:36:20.697Z,56.11
2022-07-29T06:38:56.539Z,55.96
2022-07-29T06:41:30.139Z,54.84
2022-07-29T06:44:05.859Z,54.87
2022-07-29T06:46:39.334Z,54.44
2022-07-29T06:49:14.137Z,54.11
2022-07-29T06:51:48.694Z,54.46
2022-07-29T06:54:24.617Z,54.91
2022-07-29T06:56:57.662Z,54.41
2022-07-29T06:59:35.087Z,54.56
2022-07-29T07:02:08.835Z,54.93
2022-07-29T07:04:41.896Z,53.79
2022-07-29T07:07:17.736Z,53.40
2022-07-29T07:09:51.298Z,53.67
2022-07-29T07:12:22.137Z,54.05
2022-07-29T07:14:57.215Z,54.51
2022-07-29T07:17:30.218Z,54.47
2022-07-29T07:20:04.975Z,54.50
2022-07-29T07:22:39.040Z,54.17
2022-07-29T07:25:13.426Z,52.71
2022-07-29T07:27:46.775Z,53.52
2022-07-29T07:30:20.067Z,52.89
2022-07-29T07:32:53.176Z,53.08
2022-07-29T07:35:26.298Z,52.87
2022-07-29T07:37:59.737Z,51.84
2022-07-29T07:40:32.736Z,52.14
2022-07-29T07:43:03.816Z,52.33
2022-07-29T07:45:42.379Z,52.73
2022-07-29T07:48:15.578Z,51.60
2022-07-29T07:50:52.259Z,51.97
2022-07-29T07:53:25.054Z,52.33
2022-07-29T07:56:13.914Z,51.33
2022-07-29T07:58:46.857Z,52.90
2022-07-29T08:01:20.616Z,51.34
2022-07-29T08:03:53.385Z,51.29
2022-07-29T08:06:28.296Z,50.68
2022-07-29T08:09:26.634Z,51.59
2022-07-29T08:11:54.501Z,51.98
2022-07-29T08:14:27.937Z,52.14
2022-07-29T08:17:01.145Z,53.53
2022-07-29T08:19:34.621Z,52.46
2022-07-29T08:22:07.787Z,52.24
2022-07-29T08:24:54.107Z,51.94
2022-07-29T08:27:43.528Z,51.81
2022-07-29T08:30:17.341Z,52.21
2022-07-29T08:32:55.446Z,52.32
2022-07-29T08:35:33.390Z,52.21
2022-07-29T08:38:08.152Z,51.85
2022-07-29T08:40:55.417Z,51.71
2022-07-29T08:43:28.460Z,51.95
2022-07-29T08:46:01.941Z,52.49
2022-07-29T08:48:36.500Z,51.51
2022-07-29T08:51:10.704Z,50.65
2022-07-29T08:53:49.027Z,51.54
2022-07-29T08:56:22.463Z,51.42
2022-07-29T08:58:55.537Z,51.06
2022-07-29T09:01:36.166Z,52.02
2022-07-29T09:04:18.178Z,52.23
2022-07-29T09:06:56.018Z,52.22
2022-07-29T09:09:29.588Z,52.53
2022-07-29T09:12:05.342Z,53.04
2022-07-29T09:14:38.909Z,50.66
2022-07-29T09:17:12.279Z,50.94
2022-07-29T09:19:45.680Z,50.77
2022-07-29T09:22:38.783Z,50.86
2022-07-29T09:25:34.266Z,51.15
2022-07-29T09:28:14.299Z,52.08
2022-07-29T09:30:57.259Z,53.01
2022-07-29T09:33:40.619Z,51.68
2022-07-29T09:36:15.097Z,52.57
2022-07-29T09:39:04.431Z,52.36
2022-07-29T09:41:49.818Z,52.76
2022-07-29T09:44:23.057Z,51.70
2022-07-29T09:47:07.568Z,52.48
2022-07-29T09:49:54.138Z,51.68
2022-07-29T09:52:27.737Z,51.94
2022-07-29T09:55:10.337Z,51.31
2022-07-29T09:57:54.935Z,51.67
2022-07-29T10:00:30.117Z,52.30
2022-07-29T10:03:05.249Z,53.60
2022-07-29T10:05:38.060Z,52.65
2022-07-29T10:08:13.704Z,52.69
2022-07-29T10:10:47.497Z,52.79
2022-07-29T10:13:22.356Z,53.27
2022-07-29T10:15:55.450Z,52.72
2022-07-29T10:18:28.659Z,52.06
2022-07-29T10:21:03.697Z,53.26
2022-07-29T10:23:46.229Z,53.40
2022-07-29T10:26:23.655Z,54.19
2022-07-29T10:28:58.227Z,53.86
2022-07-29T10:31:39.872Z,54.54
2022-07-29T10:34:23.226Z,53.79
2022-07-29T10:36:57.472Z,54.09
2022-07-29T10:39:49.602Z,54.67
2022-07-29T10:42:33.942Z,54.01
2022-07-29T10:45:09.418Z,53.64
2022-07-29T10:47:42.609Z,54.29
2022-07-29T10:50:18.937Z,53.79
2022-07-29T10:53:08.964Z,53.49
2022-07-29T10:55:48.668Z,52.31
2022-07-29T10:58:22.784Z,52.45
2022-07-29T11:00:58.619Z,52.64
2022-07-29T11:03:57.214Z,51.77
2022-07-29T11:07:08.419Z,52.76
2022-07-29T11:09:42.168Z,53.20
2022-07-29T11:12:43.096Z,52.18
2022-07-29T11:15:20.216Z,51.65
2022-07-29T11:18:15.262Z,51.19
2022-07-29T11:21:53.931Z,50.53
2022-07-29T11:24:35.380Z,51.28
2022-07-29T11:27:14.377Z,50.50
2022-07-29T11:29:55.055Z,50.38
2022-07-29T11:32:40.697Z,51.00
2022-07-29T11:35:36.900Z,52.16
2022-07-29T11:38:31.788Z,50.45
2022-07-29T11:41:31.835Z,51.20
2022-07-29T11:44:06.377Z,52.01
2022-07-29T11:46:54.059Z,51.55
2022-07-29T11:49:32.352Z,51.92
2022-07-29T11:52:06.261Z,51.28
2022-07-29T11:57:40.858Z,52.26
2022-07-29T12:00:23.585Z,52.66
2022-07-29T12:03:00.639Z,52.12
2022-07-29T12:05:48.402Z,51.95
2022-07-29T12:08:28.139Z,52.11
2022-07-29T12:11:03.657Z,52.24
2022-07-29T12:13:44.858Z,51.85
2022-07-29T12:16:25.304Z,52.19
2022-07-29T12:19:02.873Z,51.37
2022-07-29T12:21:56.341Z,50.23
2022-07-29T12:24:45.181Z,49.80
2022-07-29T12:27:29.343Z,51.11
2022-07-29T12:30:05.361Z,51.13
2022-07-29T12:32:41.139Z,50.35
2022-07-29T12:35:17.785Z,50.04
2022-07-29T12:37:53.538Z,50.49
2022-07-29T12:40:32.298Z,50.19
2022-07-29T12:43:14.139Z,51.49
2022-07-29T12:45:50.225Z,50.38
2022-07-29T12:48:37.930Z,49.72
2022-07-29T12:51:13.185Z,49.57
2022-07-29T12:54:04.179Z,49.93
2022-07-29T12:56:45.332Z,49.97
2022-07-29T12:59:20.536Z,50.57
2022-07-29T13:01:54.421Z,49.58
2022-07-29T13:04:34.260Z,50.26
2022-07-29T13:07:10.362Z,50.46
2022-07-29T13:09:45.216Z,50.74
2022-07-29T13:12:18.624Z,51.56
2022-07-29T13:14:52.817Z,51.70
2022-07-29T13:17:32.822Z,51.08
2022-07-29T13:20:13.977Z,50.33
2022-07-29T13:22:52.659Z,50.47
2022-07-29T13:25:31.258Z,48.67
2022-07-29T13:28:04.736Z,49.13
2022-07-29T13:30:37.692Z,49.57
2022-07-29T13:33:19.137Z,50.93
2022-07-29T13:35:52.419Z,52.20
2022-07-29T13:38:31.029Z,52.48
2022-07-29T13:41:05.637Z,51.22
2022-07-29T13:43:39.944Z,50.13
2022-07-29T13:46:12.638Z,50.10
2022-07-29T13:48:47.968Z,50.29
2022-07-29T13:51:22.218Z,51.26
2022-07-29T13:53:55.576Z,50.65
2022-07-29T13:56:28.298Z,49.01
2022-07-29T13:58:59.864Z,48.63
2022-07-29T14:01:32.938Z,48.44
2022-07-29T14:04:07.412Z,48.42
2022-07-29T14:06:41.066Z,48.75
2022-07-29T14:09:15.298Z,47.80
2022-07-29T14:11:51.058Z,47.33
2022-07-29T14:14:24.025Z,48.12
2022-07-29T14:16:57.748Z,49.29
2022-07-29T14:19:31.097Z,49.88
2022-07-29T14:22:08.665Z,49.57
2022-07-29T14:24:42.137Z,49.92
2022-07-29T14:27:15.643Z,48.50
2022-07-29T14:29:48.817Z,48.65
2022-07-29T14:32:21.784Z,48.66
2022-07-29T14:34:55.619Z,48.59
2022-07-29T14:37:29.005Z,48.14
2022-07-29T14:40:14.857Z,48.06
2022-07-29T14:42:48.315Z,48.34
2022-07-29T14:45:24.501Z,48.49
2022-07-29T14:47:58.254Z,49.40
2022-07-29T14:50:32.193Z,48.77
2022-07-29T14:53:05.217Z,48.25
2022-07-29T14:55:38.305Z,49.20
2022-07-29T14:58:16.306Z,49.38
2022-07-29T15:00:56.049Z,48.21
2022-07-29T15:03:30.403Z,48.29
2022-07-29T15:06:07.336Z,48.33
2022-07-29T15:08:40.102Z,48.76
2022-07-29T15:11:12.818Z,48.23
2022-07-29T15:13:47.019Z,48.91
2022-07-29T15:16:19.911Z,49.32
2022-07-29T15:18:55.660Z,49.53
2022-07-29T15:21:28.842Z,49.74
2022-07-29T15:24:01.938Z,48.93
2022-07-29T15:26:36.060Z,48.90
2022-07-29T15:29:09.629Z,48.65
2022-07-29T15:31:43.316Z,48.26
2022-07-29T15:34:16.386Z,48.84
2022-07-29T15:36:52.516Z,48.63
2022-07-29T15:39:27.633Z,48.08
2022-07-29T15:42:01.838Z,48.55
2022-07-29T15:44:37.060Z,49.60
2022-07-29T15:47:10.225Z,49.26
2022-07-29T15:49:48.725Z,49.14
2022-07-29T15:52:25.103Z,49.69
2022-07-29T15:54:59.875Z,50.11
2022-07-29T15:57:33.936Z,50.83
2022-07-29T16:00:08.659Z,50.82
2022-07-29T16:02:42.456Z,51.31
2022-07-29T16:05:16.492Z,51.13
2022-07-29T16:07:50.026Z,51.22
2022-07-29T16:10:23.897Z,51.56
2022-07-29T16:12:56.939Z,51.68
2022-07-29T16:15:31.977Z,51.29
2022-07-29T16:18:09.589Z,51.19
2022-07-29T16:20:43.314Z,51.38
2022-07-29T16:23:16.946Z,52.63
2022-07-29T16:25:59.641Z,52.56
2022-07-29T16:28:33.427Z,52.74
2022-07-29T16:31:06.098Z,52.95
2022-07-29T16:33:54.638Z,54.05
2022-07-29T16:36:30.306Z,54.25
2022-07-29T16:39:06.097Z,54.43
2022-07-29T16:41:38.863Z,54.61
2022-07-29T16:44:14.146Z,55.01
2022-07-29T16:46:49.096Z,55.28
2022-07-29T16:49:23.977Z,55.57
2022-07-29T16:51:57.623Z,55.78
2022-07-29T16:54:32.178Z,55.68
2022-07-29T16:57:05.777Z,55.55
2022-07-29T16:59:43.502Z,55.32
2022-07-29T17:02:18.061Z,55.54
2022-07-29T17:04:51.937Z,55.59
2022-07-29T17:07:25.019Z,55.72
2022-07-29T17:10:03.601Z,55.81
2022-07-29T17:12:38.456Z,55.80
2022-07-29T17:15:18.134Z,56.09
2022-07-29T17:17:55.265Z,55.82
2022-07-29T17:20:33.426Z,56.05
2022-07-29T17:23:06.658Z,56.50
2022-07-29T17:25:40.058Z,56.47
2022-07-29T17:28:16.340Z,56.99
2022-07-29T17:30:50.468Z,56.92
2022-07-29T17:33:23.307Z,57.11
2022-07-29T17:36:15.250Z,57.52
2022-07-29T17:38:48.146Z,58.11
2022-07-29T17:41:22.339Z,58.65
2022-07-29T17:43:57.737Z,59.15
2022-07-29T17:46:39.052Z,59.58
2022-07-29T17:49:13.081Z,62.79
2022-07-29T17:51:47.667Z,67.68
2022-07-29T17:54:20.749Z,71.62
2022-07-29T17:56:55.927Z,72.45
2022-07-29T17:59:29.543Z,77.68
2022-07-29T18:02:02.655Z,81.19
2022-07-29T18:04:38.656Z,86.78
2022-07-29T18:07:13.497Z,92.65
2022-07-29T18:09:46.781Z,99.55
2022-07-29T18:12:20.539Z,100.00
2022-07-29T18:14:58.065Z,100.00
2022-07-29T18:17:48.370Z,100.00
2022-07-29T18:20:24.928Z,100.00
2022-07-29T18:22:57.864Z,100.00
2022-07-29T18:25:31.951Z,100.00
2022-07-29T18:28:06.016Z,100.00
2022-07-29T18:30:39.178Z,100.00
2022-07-29T18:33:21.141Z,100.00
2022-07-29T18:36:06.126Z,100.00
2022-07-29T18:38:45.383Z,100.00
2022-07-29T18:41:18.122Z,100.00
2022-07-29T18:43:51.145Z,100.00
2022-07-29T18:46:25.508Z,100.00
2022-07-29T18:49:00.253Z,100.00
2022-07-29T18:51:33.459Z,100.00
2022-07-29T18:54:07.218Z,100.00
2022-07-29T18:56:42.542Z,100.00
2022-07-29T18:59:20.579Z,100.00
2022-07-29T19:01:54.842Z,100.00
2022-07-29T19:04:32.499Z,100.00
2022-07-29T19:07:05.858Z,100.00
2022-07-29T19:09:43.673Z,100.00
2022-07-29T19:12:23.347Z,100.00
2022-07-29T19:14:57.499Z,100.00
2022-07-29T19:17:30.417Z,100.00
2022-07-29T19:20:01.383Z,100.00
2022-07-29T19:22:37.376Z,100.00
2022-07-29T19:25:11.737Z,100.00
2022-07-29T19:27:44.615Z,100.00
2022-07-29T19:30:17.696Z,100.00
2022-07-29T19:32:49.065Z,100.00
2022-07-29T19:35:32.954Z,100.00
2022-07-29T19:38:07.100Z,100.00
2022-07-29T19:40:42.786Z,100.00
2022-07-29T19:43:50.431Z,100.00
2022-07-29T19:46:09.018Z,100.00
2022-07-29T19:48:42.279Z,100.00
2022-07-29T19:51:15.495Z,100.00
2022-07-29T19:53:46.616Z,100.00
2022-07-29T19:56:22.106Z,100.00
2022-07-29T19:58:57.421Z,100.00
2022-07-29T20:01:32.434Z,100.00
2022-07-29T20:04:08.590Z,100.00
2022-07-29T20:06:42.523Z,100.00
2022-07-29T20:09:20.436Z,100.00
2022-07-29T20:11:54.426Z,100.00
2022-07-29T20:14:27.659Z,100.00
2022-07-29T20:17:02.343Z,100.00
2022-07-29T20:19:36.298Z,100.00
2022-07-29T20:22:09.380Z,100.00
2022-07-29T20:24:42.059Z,100.00
2022-07-29T20:27:18.218Z,100.00
2022-07-29T20:29:51.418Z,100.00
2022-07-29T20:32:27.939Z,100.00
2022-07-29T20:35:00.699Z,100.00
2022-07-29T20:37:34.416Z,100.00
2022-07-29T20:40:25.541Z,100.00
2022-07-29T20:42:58.581Z,100.00
2022-07-29T20:45:31.668Z,100.00
2022-07-29T20:48:08.270Z,100.00
2022-07-29T20:50:43.141Z,100.00
2022-07-29T20:53:20.816Z,100.00
2022-07-29T20:55:54.262Z,100.00
2022-07-29T20:58:27.341Z,100.00
2022-07-29T21:01:12.306Z,100.00
2022-07-29T21:03:45.460Z,100.00
2022-07-29T21:06:18.817Z,100.00
2022-07-29T21:08:56.417Z,100.00
2022-07-29T21:11:44.213Z,100.00
2022-07-29T21:14:28.781Z,100.00
2022-07-29T21:17:02.650Z,100.00
2022-07-29T21:19:36.177Z,100.00
2022-07-29T21:22:09.418Z,100.00
2022-07-29T21:24:42.618Z,100.00
2022-07-29T21:27:33.179Z,100.00
2022-07-29T21:30:07.342Z,100.00
2022-07-29T21:32:47.501Z,100.00
2022-07-29T21:36:01.628Z,100.00
2022-07-29T21:38:13.063Z,100.00
2022-07-29T21:40:45.937Z,100.00
2022-07-29T21:43:19.299Z,100.00
2022-07-29T21:45:52.510Z,100.00
2022-07-29T21:48:27.139Z,100.00
2022-07-29T21:51:00.256Z,100.00
2022-07-29T21:53:32.939Z,100.00
2022-07-29T21:56:06.379Z,100.00
2022-07-29T21:58:42.257Z,100.00
2022-07-29T22:01:15.441Z,100.00
2022-07-29T22:03:50.903Z,100.00
2022-07-29T22:06:26.618Z,100.00
2022-07-29T22:08:57.496Z,100.00
2022-07-29T22:11:30.457Z,100.00
2022-07-29T22:14:03.500Z,100.00
2022-07-29T22:16:37.021Z,100.00
2022-07-29T22:19:12.102Z,100.00
2022-07-29T22:21:45.216Z,100.00
2022-07-29T22:24:18.700Z,100.00
2022-07-29T22:26:52.178Z,100.00
2022-07-29T22:29:27.176Z,100.00
2022-07-29T22:32:00.505Z,100.00
2022-07-29T22:34:38.340Z,100.00
2022-07-29T22:37:11.179Z,100.00
2022-07-29T22:39:44.178Z,100.00
2022-07-29T22:42:17.016Z,100.00
2022-07-29T22:44:53.098Z,100.00
2022-07-29T22:47:45.683Z,100.00
2022-07-29T22:50:20.061Z,100.00
2022-07-29T22:52:53.218Z,100.00
2022-07-29T22:55:26.669Z,100.00
2022-07-29T22:57:59.859Z,100.00
2022-07-29T23:00:33.538Z,100.00
2022-07-29T23:03:06.499Z,100.00
2022-07-29T23:05:39.416Z,100.00
2022-07-29T23:08:12.655Z,100.00
2022-07-29T23:10:45.622Z,100.00
2022-07-29T23:13:18.617Z,100.00
2022-07-29T23:15:51.739Z,100.00
2022-07-29T23:18:24.699Z,100.00
2022-07-29T23:20:57.496Z,100.00
2022-07-29T23:23:32.287Z,100.00
2022-07-29T23:26:08.256Z,100.00
2022-07-29T23:28:47.819Z,100.00
2022-07-29T23:31:20.925Z,100.00
2022-07-29T23:33:54.416Z,100.00
2022-07-29T23:36:27.219Z,100.00
2022-07-29T23:39:00.065Z,100.00
2022-07-29T23:41:35.740Z,100.00
2022-07-29T23:44:09.057Z,100.00
2022-07-29T23:46:42.177Z,100.00
2022-07-29T23:49:15.695Z,100.00
2022-07-29T23:51:50.136Z,100.00
2022-07-29T23:54:23.378Z,100.00
2022-07-29T23:56:54.456Z,100.00
2022-07-29T23:59:27.456Z,100.00
